Terminal Aerodrome Forecast
Issued by NWS Cleveland, OH

Home | Current Version | Previous Version | Graphics & Text | Print | Product List | Glossary On
Versions: 1 2 3 4 5 6 7 8 9 10 11 12 13 14 15 16 17 18
000
FTUS41 KCLE 221700
TAFYNG
TAF
KYNG 221730Z 2218/2318 22008KT P6SM BKN050
     FM222300 20006KT P6SM SCT250
     FM231200 25008KT P6SM VCSH BKN050 OVC100
     FM231400 29008KT P6SM VCSH BKN025 OVC050=

USA.gov is the U.S. government's official web portal to all federal, state and local government web resources and services.